sensor_id;sensor_type;location;lat;lon;timestamp;P1;durP1;ratioP1;P2;durP2;ratioP2
21091;SDS011;10704;42.678;23.288;2023-06-05T00:02:23;20.33;;;12.45;;
21091;SDS011;10704;42.678;23.288;2023-06-05T00:05:03;16.20;;;12.88;;
21091;SDS011;10704;42.678;23.288;2023-06-05T00:11:22;19.83;;;12.93;;
21091;SDS011;10704;42.678;23.288;2023-06-05T00:19:47;18.63;;;13.30;;
21091;SDS011;10704;42.678;23.288;2023-06-05T00:22:13;20.48;;;12.88;;
21091;SDS011;10704;42.678;23.288;2023-06-05T00:28:26;17.55;;;11.80;;
21091;SDS011;10704;42.678;23.288;2023-06-05T00:30:53;17.23;;;12.73;;
21091;SDS011;10704;42.678;23.288;2023-06-05T00:33:19;16.70;;;12.30;;
21091;SDS011;10704;42.678;23.288;2023-06-05T00:35:45;17.25;;;12.50;;
21091;SDS011;10704;42.678;23.288;2023-06-05T00:38:12;17.15;;;12.27;;
21091;SDS011;10704;42.678;23.288;2023-06-05T00:40:37;15.23;;;11.77;;
21091;SDS011;10704;42.678;23.288;2023-06-05T00:43:03;17.52;;;13.85;;
21091;SDS011;10704;42.678;23.288;2023-06-05T00:45:31;19.92;;;14.43;;
21091;SDS011;10704;42.678;23.288;2023-06-05T00:47:57;21.42;;;14.90;;
21091;SDS011;10704;42.678;23.288;2023-06-05T00:50:24;24.25;;;14.02;;
21091;SDS011;10704;42.678;23.288;2023-06-05T00:56:07;23.25;;;14.48;;
21091;SDS011;10704;42.678;23.288;2023-06-05T01:01:55;23.35;;;14.63;;
21091;SDS011;10704;42.678;23.288;2023-06-05T01:04:21;18.48;;;14.18;;
21091;SDS011;10704;42.678;23.288;2023-06-05T01:06:49;18.85;;;14.43;;
21091;SDS011;10704;42.678;23.288;2023-06-05T01:09:16;22.00;;;14.25;;
21091;SDS011;10704;42.678;23.288;2023-06-05T01:21:55;23.05;;;16.27;;
21091;SDS011;10704;42.678;23.288;2023-06-05T01:24:22;25.83;;;15.23;;
21091;SDS011;10704;42.678;23.288;2023-06-05T01:32:40;18.52;;;14.35;;
21091;SDS011;10704;42.678;23.288;2023-06-05T01:39:15;22.88;;;14.40;;
21091;SDS011;10704;42.678;23.288;2023-06-05T01:41:43;20.15;;;14.85;;
21091;SDS011;10704;42.678;23.288;2023-06-05T01:44:09;19.83;;;14.15;;
21091;SDS011;10704;42.678;23.288;2023-06-05T01:46:39;20.27;;;13.90;;
21091;SDS011;10704;42.678;23.288;2023-06-05T01:49:06;17.02;;;14.30;;
21091;SDS011;10704;42.678;23.288;2023-06-05T01:51:32;17.70;;;13.80;;
21091;SDS011;10704;42.678;23.288;2023-06-05T01:53:59;18.98;;;14.13;;
21091;SDS011;10704;42.678;23.288;2023-06-05T01:56:25;22.98;;;15.07;;
21091;SDS011;10704;42.678;23.288;2023-06-05T01:58:51;18.85;;;13.45;;
21091;SDS011;10704;42.678;23.288;2023-06-05T02:01:18;18.88;;;14.43;;
21091;SDS011;10704;42.678;23.288;2023-06-05T02:03:48;19.77;;;14.68;;
21091;SDS011;10704;42.678;23.288;2023-06-05T02:10:04;17.38;;;13.52;;
21091;SDS011;10704;42.678;23.288;2023-06-05T02:23:09;20.40;;;15.43;;
21091;SDS011;10704;42.678;23.288;2023-06-05T02:25:35;22.00;;;15.63;;
21091;SDS011;10704;42.678;23.288;2023-06-05T02:35:41;26.42;;;16.60;;
21091;SDS011;10704;42.678;23.288;2023-06-05T02:41:55;23.02;;;16.15;;
21091;SDS011;10704;42.678;23.288;2023-06-05T02:50:40;23.35;;;15.95;;
21091;SDS011;10704;42.678;23.288;2023-06-05T02:56:56;26.15;;;16.30;;
21091;SDS011;10704;42.678;23.288;2023-06-05T02:59:27;20.40;;;15.50;;
21091;SDS011;10704;42.678;23.288;2023-06-05T03:01:59;24.67;;;17.70;;
21091;SDS011;10704;42.678;23.288;2023-06-05T03:04:25;25.60;;;16.92;;
21091;SDS011;10704;42.678;23.288;2023-06-05T03:06:55;27.30;;;18.08;;
21091;SDS011;10704;42.678;23.288;2023-06-05T03:09:24;22.13;;;17.30;;
21091;SDS011;10704;42.678;23.288;2023-06-05T03:11:51;26.52;;;17.00;;
21091;SDS011;10704;42.678;23.288;2023-06-05T03:14:18;24.58;;;16.90;;
21091;SDS011;10704;42.678;23.288;2023-06-05T03:16:44;28.50;;;17.85;;
21091;SDS011;10704;42.678;23.288;2023-06-05T03:19:13;25.20;;;17.95;;
21091;SDS011;10704;42.678;23.288;2023-06-05T03:21:41;23.67;;;18.15;;
21091;SDS011;10704;42.678;23.288;2023-06-05T03:24:12;27.25;;;17.58;;
21091;SDS011;10704;42.678;23.288;2023-06-05T03:26:41;27.50;;;18.67;;
21091;SDS011;10704;42.678;23.288;2023-06-05T03:32:58;24.38;;;18.52;;
21091;SDS011;10704;42.678;23.288;2023-06-05T03:35:25;26.02;;;19.33;;
21091;SDS011;10704;42.678;23.288;2023-06-05T03:37:54;25.45;;;18.90;;
21091;SDS011;10704;42.678;23.288;2023-06-05T03:40:20;30.35;;;19.95;;
21091;SDS011;10704;42.678;23.288;2023-06-05T03:50:21;32.97;;;22.92;;
21091;SDS011;10704;42.678;23.288;2023-06-05T03:52:49;31.83;;;21.63;;
21091;SDS011;10704;42.678;23.288;2023-06-05T03:59:07;31.10;;;22.27;;
21091;SDS011;10704;42.678;23.288;2023-06-05T04:01:42;33.28;;;22.23;;
21091;SDS011;10704;42.678;23.288;2023-06-05T04:04:08;32.95;;;22.30;;
21091;SDS011;10704;42.678;23.288;2023-06-05T04:06:35;33.65;;;23.42;;
21091;SDS011;10704;42.678;23.288;2023-06-05T04:09:03;30.98;;;21.65;;
21091;SDS011;10704;42.678;23.288;2023-06-05T04:11:37;33.00;;;23.45;;
21091;SDS011;10704;42.678;23.288;2023-06-05T04:14:08;33.50;;;24.30;;
21091;SDS011;10704;42.678;23.288;2023-06-05T04:16:35;31.35;;;22.90;;
21091;SDS011;10704;42.678;23.288;2023-06-05T04:19:05;35.42;;;23.15;;
21091;SDS011;10704;42.678;23.288;2023-06-05T04:21:34;32.22;;;23.30;;
21091;SDS011;10704;42.678;23.288;2023-06-05T04:24:02;34.33;;;22.90;;
21091;SDS011;10704;42.678;23.288;2023-06-05T04:26:37;30.67;;;22.13;;
21091;SDS011;10704;42.678;23.288;2023-06-05T04:29:04;32.08;;;21.90;;
21091;SDS011;10704;42.678;23.288;2023-06-05T04:31:34;30.13;;;21.70;;
21091;SDS011;10704;42.678;23.288;2023-06-05T04:41:36;35.33;;;21.70;;
21091;SDS011;10704;42.678;23.288;2023-06-05T04:44:03;35.00;;;23.13;;
21091;SDS011;10704;42.678;23.288;2023-06-05T04:46:30;31.70;;;23.73;;
21091;SDS011;10704;42.678;23.288;2023-06-05T04:48:57;37.78;;;23.20;;
21091;SDS011;10704;42.678;23.288;2023-06-05T04:51:23;29.77;;;23.05;;
21091;SDS011;10704;42.678;23.288;2023-06-05T04:53:51;33.30;;;23.42;;
21091;SDS011;10704;42.678;23.288;2023-06-05T04:56:21;36.00;;;23.73;;
21091;SDS011;10704;42.678;23.288;2023-06-05T05:02:35;36.53;;;23.70;;
21091;SDS011;10704;42.678;23.288;2023-06-05T05:05:03;30.45;;;24.02;;
21091;SDS011;10704;42.678;23.288;2023-06-05T05:07:29;33.20;;;23.33;;
21091;SDS011;10704;42.678;23.288;2023-06-05T05:24:13;29.70;;;19.05;;
21091;SDS011;10704;42.678;23.288;2023-06-05T05:26:41;24.05;;;17.25;;
21091;SDS011;10704;42.678;23.288;2023-06-05T05:29:07;27.40;;;18.00;;
21091;SDS011;10704;42.678;23.288;2023-06-05T05:31:34;21.23;;;16.70;;
21091;SDS011;10704;42.678;23.288;2023-06-05T05:34:00;26.35;;;18.75;;
21091;SDS011;10704;42.678;23.288;2023-06-05T05:36:27;25.92;;;19.05;;
21091;SDS011;10704;42.678;23.288;2023-06-05T05:38:53;35.85;;;18.50;;
21091;SDS011;10704;42.678;23.288;2023-06-05T05:41:19;24.65;;;18.00;;
21091;SDS011;10704;42.678;23.288;2023-06-05T05:43:46;25.90;;;18.55;;
21091;SDS011;10704;42.678;23.288;2023-06-05T05:46:12;25.63;;;18.40;;
21091;SDS011;10704;42.678;23.288;2023-06-05T05:48:38;26.25;;;18.13;;
21091;SDS011;10704;42.678;23.288;2023-06-05T05:58:40;21.25;;;14.98;;
21091;SDS011;10704;42.678;23.288;2023-06-05T06:08:47;20.63;;;14.32;;
21091;SDS011;10704;42.678;23.288;2023-06-05T06:11:13;21.90;;;15.32;;
21091;SDS011;10704;42.678;23.288;2023-06-05T06:13:40;17.08;;;13.18;;
21091;SDS011;10704;42.678;23.288;2023-06-05T06:16:06;22.15;;;14.20;;
21091;SDS011;10704;42.678;23.288;2023-06-05T06:18:32;23.05;;;14.65;;
21091;SDS011;10704;42.678;23.288;2023-06-05T06:20:58;21.20;;;14.10;;
21091;SDS011;10704;42.678;23.288;2023-06-05T06:23:24;18.77;;;13.88;;
21091;SDS011;10704;42.678;23.288;2023-06-05T06:25:50;19.95;;;13.95;;
21091;SDS011;10704;42.678;23.288;2023-06-05T06:28:17;18.33;;;13.90;;
21091;SDS011;10704;42.678;23.288;2023-06-05T06:30:44;18.55;;;13.25;;
21091;SDS011;10704;42.678;23.288;2023-06-05T06:33:12;17.65;;;13.23;;
21091;SDS011;10704;42.678;23.288;2023-06-05T06:35:38;20.83;;;13.75;;
21091;SDS011;10704;42.678;23.288;2023-06-05T06:38:04;23.13;;;13.65;;
21091;SDS011;10704;42.678;23.288;2023-06-05T06:40:31;18.27;;;13.18;;
21091;SDS011;10704;42.678;23.288;2023-06-05T06:42:57;22.88;;;14.27;;
21091;SDS011;10704;42.678;23.288;2023-06-05T06:45:33;18.15;;;13.40;;
21091;SDS011;10704;42.678;23.288;2023-06-05T06:51:47;19.60;;;13.07;;
21091;SDS011;10704;42.678;23.288;2023-06-05T07:02:07;17.63;;;13.50;;
21091;SDS011;10704;42.678;23.288;2023-06-05T07:04:39;17.25;;;12.93;;
21091;SDS011;10704;42.678;23.288;2023-06-05T07:10:56;22.73;;;14.52;;
21091;SDS011;10704;42.678;23.288;2023-06-05T07:19:55;22.42;;;14.25;;
21091;SDS011;10704;42.678;23.288;2023-06-05T07:22:22;25.35;;;16.27;;
21091;SDS011;10704;42.678;23.288;2023-06-05T07:24:50;23.55;;;16.45;;
21091;SDS011;10704;42.678;23.288;2023-06-05T07:27:16;19.50;;;15.25;;
21091;SDS011;10704;42.678;23.288;2023-06-05T07:37:18;21.20;;;14.93;;
21091;SDS011;10704;42.678;23.288;2023-06-05T07:43:31;21.05;;;15.55;;
21091;SDS011;10704;42.678;23.288;2023-06-05T07:45:57;23.10;;;15.45;;
21091;SDS011;10704;42.678;23.288;2023-06-05T07:48:23;19.80;;;15.43;;
21091;SDS011;10704;42.678;23.288;2023-06-05T07:53:34;18.35;;;13.82;;
21091;SDS011;10704;42.678;23.288;2023-06-05T07:56:11;22.85;;;15.73;;
21091;SDS011;10704;42.678;23.288;2023-06-05T07:58:37;21.30;;;15.15;;
21091;SDS011;10704;42.678;23.288;2023-06-05T08:01:04;20.40;;;14.98;;
21091;SDS011;10704;42.678;23.288;2023-06-05T08:03:32;20.95;;;14.50;;
21091;SDS011;10704;42.678;23.288;2023-06-05T08:05:59;20.95;;;15.85;;
21091;SDS011;10704;42.678;23.288;2023-06-05T08:08:26;22.50;;;14.90;;
21091;SDS011;10704;42.678;23.288;2023-06-05T08:10:52;21.52;;;15.02;;
21091;SDS011;10704;42.678;23.288;2023-06-05T08:20:09;18.92;;;13.75;;
21091;SDS011;10704;42.678;23.288;2023-06-05T08:22:36;18.85;;;14.38;;
21091;SDS011;10704;42.678;23.288;2023-06-05T08:25:06;18.27;;;14.15;;
21091;SDS011;10704;42.678;23.288;2023-06-05T08:27:32;20.95;;;13.57;;
21091;SDS011;10704;42.678;23.288;2023-06-05T08:29:58;20.55;;;14.60;;
21091;SDS011;10704;42.678;23.288;2023-06-05T08:32:24;17.92;;;14.38;;
21091;SDS011;10704;42.678;23.288;2023-06-05T08:34:51;23.08;;;14.13;;
21091;SDS011;10704;42.678;23.288;2023-06-05T08:37:16;18.83;;;14.02;;
21091;SDS011;10704;42.678;23.288;2023-06-05T08:39:43;17.98;;;13.07;;
21091;SDS011;10704;42.678;23.288;2023-06-05T08:42:10;22.27;;;14.18;;
21091;SDS011;10704;42.678;23.288;2023-06-05T08:44:54;24.05;;;15.00;;
21091;SDS011;10704;42.678;23.288;2023-06-05T08:47:20;19.73;;;13.23;;
21091;SDS011;10704;42.678;23.288;2023-06-05T08:49:50;20.75;;;14.68;;
21091;SDS011;10704;42.678;23.288;2023-06-05T08:58:19;20.80;;;14.90;;
21091;SDS011;10704;42.678;23.288;2023-06-05T09:00:45;20.65;;;14.27;;
21091;SDS011;10704;42.678;23.288;2023-06-05T09:03:14;19.95;;;13.98;;
21091;SDS011;10704;42.678;23.288;2023-06-05T09:05:46;23.15;;;14.73;;
21091;SDS011;10704;42.678;23.288;2023-06-05T09:08:13;26.15;;;14.65;;
21091;SDS011;10704;42.678;23.288;2023-06-05T09:10:44;19.02;;;13.45;;
21091;SDS011;10704;42.678;23.288;2023-06-05T09:13:10;16.85;;;13.63;;
21091;SDS011;10704;42.678;23.288;2023-06-05T09:15:36;21.30;;;14.10;;
21091;SDS011;10704;42.678;23.288;2023-06-05T09:18:03;19.60;;;13.38;;
21091;SDS011;10704;42.678;23.288;2023-06-05T09:24:20;18.85;;;12.63;;
21091;SDS011;10704;42.678;23.288;2023-06-05T09:32:28;19.05;;;13.70;;
21091;SDS011;10704;42.678;23.288;2023-06-05T09:34:56;22.77;;;14.15;;
21091;SDS011;10704;42.678;23.288;2023-06-05T09:40:13;17.75;;;12.57;;
21091;SDS011;10704;42.678;23.288;2023-06-05T09:42:40;18.92;;;14.10;;
21091;SDS011;10704;42.678;23.288;2023-06-05T09:45:06;20.73;;;14.45;;
21091;SDS011;10704;42.678;23.288;2023-06-05T09:51:20;22.60;;;13.65;;
21091;SDS011;10704;42.678;23.288;2023-06-05T09:53:49;20.30;;;13.40;;
21091;SDS011;10704;42.678;23.288;2023-06-05T09:59:54;20.55;;;13.85;;
21091;SDS011;10704;42.678;23.288;2023-06-05T10:02:21;23.10;;;15.10;;
21091;SDS011;10704;42.678;23.288;2023-06-05T10:08:38;22.80;;;14.50;;
21091;SDS011;10704;42.678;23.288;2023-06-05T10:11:04;21.65;;;13.57;;
21091;SDS011;10704;42.678;23.288;2023-06-05T10:13:32;20.52;;;13.70;;
21091;SDS011;10704;42.678;23.288;2023-06-05T10:15:59;17.50;;;13.07;;
21091;SDS011;10704;42.678;23.288;2023-06-05T10:18:25;18.70;;;12.63;;
21091;SDS011;10704;42.678;23.288;2023-06-05T10:20:52;16.60;;;11.52;;
21091;SDS011;10704;42.678;23.288;2023-06-05T10:39:42;18.73;;;13.43;;
21091;SDS011;10704;42.678;23.288;2023-06-05T10:42:11;18.83;;;12.07;;
21091;SDS011;10704;42.678;23.288;2023-06-05T10:44:43;16.40;;;11.25;;
21091;SDS011;10704;42.678;23.288;2023-06-05T10:52:47;15.50;;;10.68;;
21091;SDS011;10704;42.678;23.288;2023-06-05T10:55:14;12.65;;;9.48;;
21091;SDS011;10704;42.678;23.288;2023-06-05T11:03:57;18.13;;;10.52;;
21091;SDS011;10704;42.678;23.288;2023-06-05T11:06:26;15.90;;;9.52;;
21091;SDS011;10704;42.678;23.288;2023-06-05T11:09:08;12.73;;;9.40;;
21091;SDS011;10704;42.678;23.288;2023-06-05T11:11:55;12.55;;;8.98;;
21091;SDS011;10704;42.678;23.288;2023-06-05T11:14:22;14.25;;;8.73;;
21091;SDS011;10704;42.678;23.288;2023-06-05T11:19:56;11.32;;;7.85;;
21091;SDS011;10704;42.678;23.288;2023-06-05T11:22:22;10.30;;;6.88;;
21091;SDS011;10704;42.678;23.288;2023-06-05T11:27:43;10.43;;;7.53;;
21091;SDS011;10704;42.678;23.288;2023-06-05T11:30:13;10.63;;;7.18;;
21091;SDS011;10704;42.678;23.288;2023-06-05T11:32:42;10.88;;;7.88;;
21091;SDS011;10704;42.678;23.288;2023-06-05T11:35:08;10.77;;;7.32;;
21091;SDS011;10704;42.678;23.288;2023-06-05T11:37:35;9.98;;;7.25;;
21091;SDS011;10704;42.678;23.288;2023-06-05T11:40:05;12.05;;;7.97;;
21091;SDS011;10704;42.678;23.288;2023-06-05T11:55:57;11.50;;;7.40;;
21091;SDS011;10704;42.678;23.288;2023-06-05T11:58:29;12.10;;;7.30;;
21091;SDS011;10704;42.678;23.288;2023-06-05T12:03:41;9.88;;;7.63;;
21091;SDS011;10704;42.678;23.288;2023-06-05T12:06:07;10.95;;;7.13;;
21091;SDS011;10704;42.678;23.288;2023-06-05T12:23:01;8.95;;;6.25;;
21091;SDS011;10704;42.678;23.288;2023-06-05T12:25:27;10.90;;;7.00;;
21091;SDS011;10704;42.678;23.288;2023-06-05T12:27:54;9.70;;;6.43;;
21091;SDS011;10704;42.678;23.288;2023-06-05T12:30:20;12.85;;;7.13;;
21091;SDS011;10704;42.678;23.288;2023-06-05T12:32:46;11.60;;;6.90;;
21091;SDS011;10704;42.678;23.288;2023-06-05T12:35:23;10.65;;;7.47;;
21091;SDS011;10704;42.678;23.288;2023-06-05T12:37:50;8.10;;;5.68;;
21091;SDS011;10704;42.678;23.288;2023-06-05T12:40:17;9.98;;;6.75;;
21091;SDS011;10704;42.678;23.288;2023-06-05T12:42:46;9.77;;;6.72;;
21091;SDS011;10704;42.678;23.288;2023-06-05T12:45:13;11.10;;;7.10;;
21091;SDS011;10704;42.678;23.288;2023-06-05T12:50:27;10.63;;;6.53;;
21091;SDS011;10704;42.678;23.288;2023-06-05T12:55:43;11.25;;;6.40;;
21091;SDS011;10704;42.678;23.288;2023-06-05T12:58:09;8.95;;;6.28;;
21091;SDS011;10704;42.678;23.288;2023-06-05T13:00:35;8.13;;;6.15;;
21091;SDS011;10704;42.678;23.288;2023-06-05T13:06:50;7.75;;;5.38;;
21091;SDS011;10704;42.678;23.288;2023-06-05T13:09:16;7.40;;;6.00;;
21091;SDS011;10704;42.678;23.288;2023-06-05T13:11:42;10.15;;;6.13;;
21091;SDS011;10704;42.678;23.288;2023-06-05T13:14:09;8.70;;;5.55;;
21091;SDS011;10704;42.678;23.288;2023-06-05T13:19:22;9.48;;;6.60;;
21091;SDS011;10704;42.678;23.288;2023-06-05T13:25:35;11.18;;;6.72;;
21091;SDS011;10704;42.678;23.288;2023-06-05T13:45:43;6.43;;;5.38;;
21091;SDS011;10704;42.678;23.288;2023-06-05T13:48:20;8.35;;;5.72;;
21091;SDS011;10704;42.678;23.288;2023-06-05T13:50:46;8.25;;;5.80;;
21091;SDS011;10704;42.678;23.288;2023-06-05T13:53:12;8.85;;;5.63;;
21091;SDS011;10704;42.678;23.288;2023-06-05T13:55:38;7.88;;;5.53;;
21091;SDS011;10704;42.678;23.288;2023-06-05T13:58:05;7.57;;;5.43;;
21091;SDS011;10704;42.678;23.288;2023-06-05T14:00:32;8.43;;;6.00;;
21091;SDS011;10704;42.678;23.288;2023-06-05T14:02:58;7.43;;;5.25;;
21091;SDS011;10704;42.678;23.288;2023-06-05T14:11:59;10.05;;;6.47;;
21091;SDS011;10704;42.678;23.288;2023-06-05T14:18:12;10.38;;;6.25;;
21091;SDS011;10704;42.678;23.288;2023-06-05T14:20:48;7.47;;;5.85;;
21091;SDS011;10704;42.678;23.288;2023-06-05T14:23:13;7.25;;;5.50;;
21091;SDS011;10704;42.678;23.288;2023-06-05T14:25:39;8.27;;;5.15;;
21091;SDS011;10704;42.678;23.288;2023-06-05T14:28:05;13.88;;;6.32;;
21091;SDS011;10704;42.678;23.288;2023-06-05T14:34:19;9.57;;;6.10;;
21091;SDS011;10704;42.678;23.288;2023-06-05T14:36:45;11.80;;;6.13;;
21091;SDS011;10704;42.678;23.288;2023-06-05T14:39:16;11.80;;;5.85;;
21091;SDS011;10704;42.678;23.288;2023-06-05T14:45:29;9.35;;;6.10;;
21091;SDS011;10704;42.678;23.288;2023-06-05T14:51:07;9.60;;;5.85;;
21091;SDS011;10704;42.678;23.288;2023-06-05T14:56:28;8.15;;;6.10;;
21091;SDS011;10704;42.678;23.288;2023-06-05T14:58:53;9.10;;;6.75;;
21091;SDS011;10704;42.678;23.288;2023-06-05T15:08:18;11.75;;;6.50;;
21091;SDS011;10704;42.678;23.288;2023-06-05T15:10:46;15.95;;;7.20;;
21091;SDS011;10704;42.678;23.288;2023-06-05T15:13:12;15.95;;;7.00;;
21091;SDS011;10704;42.678;23.288;2023-06-05T15:15:57;9.55;;;6.38;;
21091;SDS011;10704;42.678;23.288;2023-06-05T15:18:24;9.40;;;6.47;;
21091;SDS011;10704;42.678;23.288;2023-06-05T15:24:00;9.43;;;6.97;;
21091;SDS011;10704;42.678;23.288;2023-06-05T15:26:26;11.20;;;7.30;;
21091;SDS011;10704;42.678;23.288;2023-06-05T15:28:52;9.40;;;6.93;;
21091;SDS011;10704;42.678;23.288;2023-06-05T15:31:18;11.15;;;6.55;;
21091;SDS011;10704;42.678;23.288;2023-06-05T15:33:44;10.40;;;7.32;;
21091;SDS011;10704;42.678;23.288;2023-06-05T15:36:10;12.32;;;7.40;;
21091;SDS011;10704;42.678;23.288;2023-06-05T15:38:35;10.38;;;7.28;;
21091;SDS011;10704;42.678;23.288;2023-06-05T15:41:01;12.38;;;7.38;;
21091;SDS011;10704;42.678;23.288;2023-06-05T15:43:27;15.23;;;7.22;;
21091;SDS011;10704;42.678;23.288;2023-06-05T15:45:53;12.75;;;7.90;;
21091;SDS011;10704;42.678;23.288;2023-06-05T15:48:20;9.95;;;7.72;;
21091;SDS011;10704;42.678;23.288;2023-06-05T15:50:46;14.48;;;7.80;;
21091;SDS011;10704;42.678;23.288;2023-06-05T15:53:13;10.95;;;7.60;;
21091;SDS011;10704;42.678;23.288;2023-06-05T15:55:39;11.73;;;7.80;;
21091;SDS011;10704;42.678;23.288;2023-06-05T15:58:07;13.52;;;7.78;;
21091;SDS011;10704;42.678;23.288;2023-06-05T16:00:35;12.98;;;7.93;;
21091;SDS011;10704;42.678;23.288;2023-06-05T16:03:01;9.38;;;7.80;;
21091;SDS011;10704;42.678;23.288;2023-06-05T16:05:29;15.43;;;8.30;;
21091;SDS011;10704;42.678;23.288;2023-06-05T16:07:55;13.68;;;8.32;;
21091;SDS011;10704;42.678;23.288;2023-06-05T16:10:21;12.98;;;8.05;;
21091;SDS011;10704;42.678;23.288;2023-06-05T16:19:37;11.85;;;8.20;;
21091;SDS011;10704;42.678;23.288;2023-06-05T16:22:04;11.48;;;8.00;;
21091;SDS011;10704;42.678;23.288;2023-06-05T16:24:30;12.23;;;7.63;;
21091;SDS011;10704;42.678;23.288;2023-06-05T16:26:58;13.45;;;7.82;;
21091;SDS011;10704;42.678;23.288;2023-06-05T16:29:25;11.90;;;8.13;;
21091;SDS011;10704;42.678;23.288;2023-06-05T16:31:51;10.18;;;7.85;;
21091;SDS011;10704;42.678;23.288;2023-06-05T16:34:17;11.68;;;7.68;;
21091;SDS011;10704;42.678;23.288;2023-06-05T16:36:43;12.48;;;7.45;;
21091;SDS011;10704;42.678;23.288;2023-06-05T16:39:09;11.20;;;7.20;;
21091;SDS011;10704;42.678;23.288;2023-06-05T16:41:36;13.10;;;8.40;;
21091;SDS011;10704;42.678;23.288;2023-06-05T16:44:02;9.80;;;7.25;;
21091;SDS011;10704;42.678;23.288;2023-06-05T16:46:28;9.63;;;7.15;;
21091;SDS011;10704;42.678;23.288;2023-06-05T16:48:55;13.00;;;7.82;;
21091;SDS011;10704;42.678;23.288;2023-06-05T16:51:21;11.88;;;7.28;;
21091;SDS011;10704;42.678;23.288;2023-06-05T16:53:47;10.57;;;7.30;;
21091;SDS011;10704;42.678;23.288;2023-06-05T16:56:13;17.60;;;8.38;;
21091;SDS011;10704;42.678;23.288;2023-06-05T16:58:39;10.27;;;8.02;;
21091;SDS011;10704;42.678;23.288;2023-06-05T17:08:40;10.70;;;7.07;;
21091;SDS011;10704;42.678;23.288;2023-06-05T17:11:07;11.15;;;6.78;;
21091;SDS011;10704;42.678;23.288;2023-06-05T17:13:32;12.93;;;6.82;;
21091;SDS011;10704;42.678;23.288;2023-06-05T17:15:58;11.45;;;7.50;;
21091;SDS011;10704;42.678;23.288;2023-06-05T17:18:24;14.18;;;7.97;;
21091;SDS011;10704;42.678;23.288;2023-06-05T17:20:50;13.68;;;7.95;;
21091;SDS011;10704;42.678;23.288;2023-06-05T17:23:16;15.15;;;7.25;;
21091;SDS011;10704;42.678;23.288;2023-06-05T17:25:42;11.77;;;7.95;;
21091;SDS011;10704;42.678;23.288;2023-06-05T17:28:08;12.70;;;8.15;;
21091;SDS011;10704;42.678;23.288;2023-06-05T17:30:34;10.82;;;7.70;;
21091;SDS011;10704;42.678;23.288;2023-06-05T17:33:01;10.55;;;7.72;;
21091;SDS011;10704;42.678;23.288;2023-06-05T17:35:27;11.63;;;7.32;;
21091;SDS011;10704;42.678;23.288;2023-06-05T17:37:53;13.38;;;7.45;;
21091;SDS011;10704;42.678;23.288;2023-06-05T17:40:20;10.77;;;7.43;;
21091;SDS011;10704;42.678;23.288;2023-06-05T17:42:46;9.60;;;7.15;;
21091;SDS011;10704;42.678;23.288;2023-06-05T17:45:12;13.35;;;7.97;;
21091;SDS011;10704;42.678;23.288;2023-06-05T17:47:38;11.00;;;7.13;;
21091;SDS011;10704;42.678;23.288;2023-06-05T17:50:04;12.73;;;7.68;;
21091;SDS011;10704;42.678;23.288;2023-06-05T17:52:31;10.45;;;7.07;;
21091;SDS011;10704;42.678;23.288;2023-06-05T17:54:56;12.05;;;7.78;;
21091;SDS011;10704;42.678;23.288;2023-06-05T17:57:22;11.15;;;7.47;;
21091;SDS011;10704;42.678;23.288;2023-06-05T18:11:11;11.23;;;7.28;;
21091;SDS011;10704;42.678;23.288;2023-06-05T18:13:37;18.13;;;8.45;;
21091;SDS011;10704;42.678;23.288;2023-06-05T18:16:05;10.50;;;7.93;;
21091;SDS011;10704;42.678;23.288;2023-06-05T18:18:31;9.88;;;7.45;;
21091;SDS011;10704;42.678;23.288;2023-06-05T18:20:57;11.52;;;7.85;;
21091;SDS011;10704;42.678;23.288;2023-06-05T18:23:23;16.80;;;8.20;;
21091;SDS011;10704;42.678;23.288;2023-06-05T18:32:32;12.70;;;7.80;;
21091;SDS011;10704;42.678;23.288;2023-06-05T18:35:06;12.27;;;7.80;;
21091;SDS011;10704;42.678;23.288;2023-06-05T18:37:33;11.60;;;7.50;;
21091;SDS011;10704;42.678;23.288;2023-06-05T18:47:33;14.70;;;6.55;;
21091;SDS011;10704;42.678;23.288;2023-06-05T18:50:00;11.13;;;7.50;;
21091;SDS011;10704;42.678;23.288;2023-06-05T18:55:23;13.38;;;7.80;;
21091;SDS011;10704;42.678;23.288;2023-06-05T18:57:49;10.65;;;7.07;;
21091;SDS011;10704;42.678;23.288;2023-06-05T19:00:15;11.90;;;7.38;;
21091;SDS011;10704;42.678;23.288;2023-06-05T19:02:42;10.75;;;7.43;;
21091;SDS011;10704;42.678;23.288;2023-06-05T19:05:08;13.90;;;7.60;;
21091;SDS011;10704;42.678;23.288;2023-06-05T19:07:34;12.25;;;6.45;;
21091;SDS011;10704;42.678;23.288;2023-06-05T19:13:49;12.73;;;7.63;;
21091;SDS011;10704;42.678;23.288;2023-06-05T19:19:32;12.27;;;7.93;;
21091;SDS011;10704;42.678;23.288;2023-06-05T19:21:58;13.00;;;6.97;;
21091;SDS011;10704;42.678;23.288;2023-06-05T19:24:34;14.18;;;8.10;;
21091;SDS011;10704;42.678;23.288;2023-06-05T19:30:49;17.02;;;7.32;;
21091;SDS011;10704;42.678;23.288;2023-06-05T19:33:15;12.90;;;8.15;;
21091;SDS011;10704;42.678;23.288;2023-06-05T19:46:41;14.10;;;7.75;;
21091;SDS011;10704;42.678;23.288;2023-06-05T19:55:44;13.75;;;6.97;;
21091;SDS011;10704;42.678;23.288;2023-06-05T20:01:57;13.20;;;7.68;;
21091;SDS011;10704;42.678;23.288;2023-06-05T20:07:13;12.65;;;7.28;;
21091;SDS011;10704;42.678;23.288;2023-06-05T20:13:26;19.02;;;12.35;;
21091;SDS011;10704;42.678;23.288;2023-06-05T20:15:52;13.52;;;7.85;;
21091;SDS011;10704;42.678;23.288;2023-06-05T20:18:21;11.52;;;7.53;;
21091;SDS011;10704;42.678;23.288;2023-06-05T20:20:47;10.48;;;7.18;;
21091;SDS011;10704;42.678;23.288;2023-06-05T20:23:13;12.68;;;7.45;;
21091;SDS011;10704;42.678;23.288;2023-06-05T20:28:43;9.77;;;5.65;;
21091;SDS011;10704;42.678;23.288;2023-06-05T20:31:09;11.93;;;6.07;;
21091;SDS011;10704;42.678;23.288;2023-06-05T20:33:37;13.25;;;5.65;;
21091;SDS011;10704;42.678;23.288;2023-06-05T20:51:11;11.73;;;5.10;;
21091;SDS011;10704;42.678;23.288;2023-06-05T20:53:39;9.02;;;4.80;;
21091;SDS011;10704;42.678;23.288;2023-06-05T21:03:40;8.48;;;4.43;;
21091;SDS011;10704;42.678;23.288;2023-06-05T21:06:06;7.20;;;4.30;;
21091;SDS011;10704;42.678;23.288;2023-06-05T21:11:26;9.32;;;4.00;;
21091;SDS011;10704;42.678;23.288;2023-06-05T21:13:53;7.93;;;4.35;;
21091;SDS011;10704;42.678;23.288;2023-06-05T21:16:18;9.63;;;4.15;;
21091;SDS011;10704;42.678;23.288;2023-06-05T21:18:45;8.05;;;3.58;;
21091;SDS011;10704;42.678;23.288;2023-06-05T21:24:58;7.68;;;3.40;;
21091;SDS011;10704;42.678;23.288;2023-06-05T21:27:24;7.78;;;3.60;;
21091;SDS011;10704;42.678;23.288;2023-06-05T21:29:52;9.00;;;3.25;;
21091;SDS011;10704;42.678;23.288;2023-06-05T21:32:18;7.18;;;3.15;;
21091;SDS011;10704;42.678;23.288;2023-06-05T21:38:31;6.28;;;2.85;;
21091;SDS011;10704;42.678;23.288;2023-06-05T21:40:57;8.10;;;3.17;;
21091;SDS011;10704;42.678;23.288;2023-06-05T21:43:23;8.32;;;3.40;;
21091;SDS011;10704;42.678;23.288;2023-06-05T21:45:49;7.07;;;3.47;;
21091;SDS011;10704;42.678;23.288;2023-06-05T21:48:34;6.78;;;3.00;;
21091;SDS011;10704;42.678;23.288;2023-06-05T21:51:00;6.03;;;3.22;;
21091;SDS011;10704;42.678;23.288;2023-06-05T21:53:26;5.78;;;2.55;;
21091;SDS011;10704;42.678;23.288;2023-06-05T21:55:52;6.22;;;2.50;;